Time;durP1;ratioP1;P1;durP2;ratioP2;P2;SDS_P1;SDS_P2;PMS_P1;PMS_P2;Temp;Humidity;BMP_temperature;BMP_pressure;BME280_temperature;BME280_humidity;BME280_pressure;Samples;Min_cycle;Max_cycle;Signal;HPM_P1;HPM_P2
2022/09/19 00:00:06;;;;;;;9.75;8.45;;;23.40;54.20;;;;;;4795413;58;20995;-27
2022/09/19 00:05:08;;;;;;;11.57;8.52;;;23.40;54.00;;;;;;4826030;54;20983;-31
2022/09/19 00:10:10;;;;;;;10.27;8.35;;;23.40;54.00;;;;;;4808023;54;21470;-27
2022/09/19 00:15:12;;;;;;;11.10;9.05;;;23.40;54.10;;;;;;4797731;54;21537;-30
2022/09/19 00:20:12;;;;;;;9.23;8.25;;;23.30;54.00;;;;;;4795697;58;21023;-31
2022/09/19 00:25:13;;;;;;;9.40;8.38;;;23.30;54.10;;;;;;4796958;54;20999;-30
2022/09/19 00:30:14;;;;;;;9.07;8.13;;;23.30;54.20;;;;;;4796325;58;21466;-29
2022/09/19 00:35:15;;;;;;;9.57;7.85;;;23.40;54.10;;;;;;4880744;54;21000;-31
2022/09/19 00:40:16;;;;;;;8.57;7.68;;;23.30;54.10;;;;;;4798269;54;21003;-31
2022/09/19 00:45:17;;;;;;;9.85;8.25;;;23.30;54.70;;;;;;4796777;58;21486;-33
2022/09/19 00:50:30;;;;;;;9.73;7.75;;;23.30;54.00;;;;;;4830706;54;21012;-31
2022/09/19 00:55:31;;;;;;;9.10;8.10;;;23.30;53.90;;;;;;4832224;54;21484;-29
2022/09/19 01:00:34;;;;;;;8.65;7.62;;;23.30;53.90;;;;;;4817111;54;21012;-29
2022/09/19 01:09:28;;;;;;;8.52;7.62;;;23.30;54.00;;;;;;4845927;54;21712;-27
2022/09/19 01:15:58;;;;;;;8.73;7.57;;;23.30;54.10;;;;;;4797940;54;20976;-32
2022/09/19 01:21:40;;;;;;;8.93;7.47;;;23.30;54.00;;;;;;4809748;54;21004;-28
2022/09/19 01:27:23;;;;;;;8.32;7.53;;;23.30;54.00;;;;;;4796112;58;21044;-33
2022/09/19 01:32:33;;;;;;;8.15;7.00;;;23.30;54.00;;;;;;4838339;54;20984;-27
2022/09/19 01:37:40;;;;;;;10.18;7.43;;;23.30;54.10;;;;;;4875254;54;21478;-27
2022/09/19 01:42:55;;;;;;;8.68;7.15;;;23.30;54.00;;;;;;4816648;54;21051;-29
2022/09/19 01:48:18;;;;;;;7.75;6.93;;;23.30;54.00;;;;;;4853154;54;21466;-27
2022/09/19 01:53:59;;;;;;;7.85;7.03;;;23.30;54.00;;;;;;4856449;54;21047;-27
2022/09/19 02:06:06;;;;;;;8.50;6.90;;;23.30;54.00;;;;;;4795150;58;21070;-33
2022/09/19 02:11:14;;;;;;;6.95;6.25;;;23.30;54.00;;;;;;4795821;58;21561;-29
2022/09/19 02:16:30;;;;;;;8.38;6.53;;;23.20;53.90;;;;;;4805639;54;22237;-29
2022/09/19 02:21:41;;;;;;;7.50;6.55;;;23.30;53.90;;;;;;4802556;54;21007;-29
2022/09/19 02:26:48;;;;;;;7.53;6.43;;;23.20;53.70;;;;;;4798468;54;20988;-30
2022/09/19 02:31:49;;;;;;;;;;;23.30;53.70;;;;;;4814679;54;21668;-31
2022/09/19 02:37:01;;;;;;;7.35;6.65;;;23.30;53.90;;;;;;4795391;58;20119;-30
2022/09/19 02:43:14;;;;;;;7.05;6.35;;;23.20;53.90;;;;;;4807372;54;21054;-29
2022/09/19 02:52:56;;;;;;;8.43;5.78;;;23.20;53.80;;;;;;4821609;54;21442;-27
2022/09/19 02:58:02;;;;;;;6.53;5.93;;;23.20;53.80;;;;;;4795518;54;21032;-30
2022/09/19 03:08:50;;;;;;;7.37;5.82;;;23.20;53.70;;;;;;4794995;54;21067;-26
2022/09/19 03:13:58;;;;;;;6.37;5.53;;;23.20;53.70;;;;;;4818023;54;21537;-30
2022/09/19 03:19:00;;;;;;;6.68;5.43;;;23.20;53.80;;;;;;4820668;54;21533;-33
2022/09/19 03:24:02;;;;;;;6.43;5.47;;;23.20;53.80;;;;;;4903474;54;21505;-32
2022/09/19 03:29:08;;;;;;;7.03;5.82;;;23.20;53.80;;;;;;4823629;54;21537;-27
2022/09/19 03:34:10;;;;;;;6.78;6.00;;;23.20;53.90;;;;;;4816592;54;21461;-30
2022/09/19 03:39:11;;;;;;;6.55;5.70;;;23.20;53.90;;;;;;4814357;54;21570;-28
2022/09/19 03:44:13;;;;;;;7.43;5.62;;;23.20;53.80;;;;;;4827588;54;21016;-30
2022/09/19 03:49:16;;;;;;;7.03;5.53;;;23.20;53.60;;;;;;4813411;54;21262;-28
2022/09/19 03:54:17;;;;;;;6.85;5.78;;;23.20;53.80;;;;;;4810072;54;21048;-31
2022/09/19 03:59:17;;;;;;;6.15;5.32;;;23.20;53.70;;;;;;4809483;54;21103;-30
2022/09/19 04:04:18;;;;;;;5.53;5.00;;;23.20;53.70;;;;;;4801885;54;21028;-28
2022/09/19 04:09:19;;;;;;;6.43;5.50;;;23.20;53.80;;;;;;4846962;54;21087;-28
2022/09/19 04:14:20;;;;;;;6.03;5.45;;;23.20;53.80;;;;;;4858257;54;21035;-30
2022/09/19 04:19:24;;;;;;;6.30;5.55;;;23.20;53.80;;;;;;4812362;54;22057;-32
2022/09/19 04:24:26;;;;;;;5.97;5.00;;;23.20;53.80;;;;;;4809137;54;21502;-28
2022/09/19 04:29:27;;;;;;;7.32;5.22;;;23.20;53.40;;;;;;4820699;54;21994;-29
2022/09/19 04:34:29;;;;;;;6.93;5.10;;;23.10;54.00;;;;;;4832734;54;21028;-32
2022/09/19 04:39:30;;;;;;;5.80;5.20;;;23.10;53.40;;;;;;4808985;54;21024;-34
2022/09/19 04:44:30;;;;;;;5.97;5.40;;;23.20;53.50;;;;;;4795822;54;21036;-33
2022/09/19 04:49:36;;;;;;;5.43;4.90;;;23.20;53.50;;;;;;4822865;54;21584;-30
2022/09/19 04:54:37;;;;;;;5.22;4.72;;;23.10;53.20;;;;;;4835107;54;21518;-29
2022/09/19 04:59:38;;;;;;;6.53;4.72;;;23.20;53.50;;;;;;4797006;54;22457;-29
2022/09/19 05:04:41;;;;;;;7.22;4.80;;;23.10;53.30;;;;;;4837984;54;21032;-29
2022/09/19 05:09:42;;;;;;;6.00;5.40;;;23.10;53.20;;;;;;4797765;54;22227;-27
2022/09/19 05:14:42;;;;;;;6.10;5.50;;;23.10;53.30;;;;;;4796112;54;21027;-26
2022/09/19 05:19:44;;;;;;;6.57;5.47;;;23.10;53.30;;;;;;4795200;58;21422;-29
2022/09/19 05:24:47;;;;;;;8.48;5.18;;;23.10;53.30;;;;;;4795906;58;21557;-29
2022/09/19 05:29:49;;;;;;;7.12;5.62;;;23.10;53.30;;;;;;4846303;54;21155;-27
2022/09/19 05:34:51;;;;;;;6.65;5.30;;;23.10;53.30;;;;;;4806397;54;21544;-30
2022/09/19 05:39:52;;;;;;;6.68;5.32;;;23.10;53.10;;;;;;4795916;58;21600;-27
2022/09/19 05:44:54;;;;;;;6.50;5.43;;;23.10;53.20;;;;;;4839791;54;20989;-26
2022/09/19 05:49:55;;;;;;;7.90;5.82;;;23.10;53.10;;;;;;4815309;54;21545;-29
2022/09/19 05:54:56;;;;;;;6.32;5.70;;;23.10;53.20;;;;;;4801065;54;21059;-28
2022/09/19 05:59:57;;;;;;;7.25;5.95;;;23.10;53.20;;;;;;4816767;54;21028;-27
2022/09/19 06:04:58;;;;;;;7.25;5.68;;;23.10;53.30;;;;;;4805409;54;21474;-31
2022/09/19 06:10:00;;;;;;;7.68;6.18;;;23.10;53.30;;;;;;4795897;54;21015;-29
2022/09/19 06:15:01;;;;;;;7.87;6.62;;;23.10;53.00;;;;;;4821198;54;21562;-29
2022/09/19 06:20:02;;;;;;;7.75;6.20;;;23.00;53.20;;;;;;4804743;54;21027;-29
2022/09/19 06:25:04;;;;;;;6.72;6.03;;;23.10;53.10;;;;;;4823893;54;21023;-28
2022/09/19 06:30:06;;;;;;;7.95;6.55;;;23.10;53.10;;;;;;4808735;54;21051;-28
2022/09/19 06:35:07;;;;;;;8.93;6.87;;;23.10;53.20;;;;;;4827845;54;21000;-29
2022/09/19 06:40:09;;;;;;;9.60;7.32;;;23.10;53.20;;;;;;4874767;54;21093;-29
2022/09/19 06:45:10;;;;;;;7.80;6.70;;;23.10;53.10;;;;;;4833530;54;21024;-31
2022/09/19 06:50:13;;;;;;;46.58;26.75;;;23.10;53.30;;;;;;4794839;58;21024;-32
2022/09/19 06:55:14;;;;;;;54.53;30.67;;;23.00;46.00;;;;;;4797433;54;21562;-32
2022/09/19 07:00:15;;;;;;;46.33;28.15;;;22.80;44.50;;;;;;4794725;55;21083;-34
2022/09/19 07:05:16;;;;;;;68.60;39.90;;;22.80;44.10;;;;;;4795177;54;20988;-31
2022/09/19 07:10:19;;;;;;;57.25;35.28;;;22.80;44.40;;;;;;4810381;54;21557;-31
2022/09/19 07:15:20;;;;;;;49.33;30.70;;;22.70;44.30;;;;;;4822440;54;21538;-29
2022/09/19 07:20:22;;;;;;;40.90;25.25;;;22.70;44.50;;;;;;4805834;54;21042;-33
2022/09/19 07:25:23;;;;;;;59.80;36.22;;;22.70;44.20;;;;;;4858248;54;20988;-35
2022/09/19 07:30:24;;;;;;;55.92;31.35;;;22.70;44.10;;;;;;4811026;54;21020;-31
2022/09/19 07:35:27;;;;;;;45.80;28.27;;;22.70;44.40;;;;;;4794845;58;20999;-31
2022/09/19 07:40:28;;;;;;;40.03;27.08;;;22.70;44.60;;;;;;4828660;54;21597;-33
2022/09/19 07:45:32;;;;;;;39.65;24.77;;;22.60;44.40;;;;;;4796208;54;21004;-32
2022/09/19 07:50:35;;;;;;;35.15;24.10;;;22.60;44.70;;;;;;4795333;58;21055;-32
2022/09/19 07:55:36;;;;;;;50.88;33.08;;;22.50;44.90;;;;;;4822010;54;21587;-32
2022/09/19 08:00:38;;;;;;;54.13;35.97;;;22.50;45.10;;;;;;4802346;54;21490;-34
2022/09/19 08:05:41;;;;;;;48.72;31.52;;;22.60;45.30;;;;;;4805388;54;21068;-33
2022/09/19 08:10:44;;;;;;;46.47;29.75;;;22.60;47.10;;;;;;4817323;54;21072;-33
2022/09/19 08:15:48;;;;;;;51.85;31.85;;;22.70;46.80;;;;;;4806362;54;22197;-35
2022/09/19 08:20:49;;;;;;;47.97;30.52;;;22.80;47.00;;;;;;4828840;54;21056;-29
2022/09/19 08:25:52;;;;;;;49.20;30.20;;;22.90;47.60;;;;;;4809815;54;21044;-32
2022/09/19 08:30:59;;;;;;;49.65;30.20;;;23.00;47.50;;;;;;4793944;58;21577;-29
2022/09/19 08:36:01;;;;;;;43.83;30.75;;;23.00;47.70;;;;;;4798408;54;21096;-33
2022/09/19 08:41:54;;;;;;;45.78;31.87;;;23.10;48.00;;;;;;4821894;54;21027;-31
2022/09/19 08:47:11;;;;;;;42.97;31.95;;;23.10;48.20;;;;;;4812565;54;21123;-37
2022/09/19 08:52:49;;;;;;;46.22;31.20;;;23.20;48.50;;;;;;4795965;54;21115;-31
2022/09/19 08:58:17;;;;;;;48.80;33.17;;;23.20;49.00;;;;;;4795149;58;21051;-28
2022/09/19 09:03:24;;;;;;;48.92;33.50;;;23.30;49.20;;;;;;4825623;54;22081;-29
2022/09/19 09:13:50;;;;;;;52.38;34.70;;;23.30;49.30;;;;;;4804765;54;21107;-36
2022/09/19 09:19:17;;;;;;;51.28;35.28;;;23.40;49.90;;;;;;4813841;54;21557;-31
2022/09/19 09:24:26;;;;;;;53.60;35.75;;;23.40;49.60;;;;;;4801367;54;20984;-30
2022/09/19 09:29:43;;;;;;;57.30;36.65;;;23.30;49.40;;;;;;4802129;54;21015;-33
2022/09/19 09:36:22;;;;;;;55.97;37.88;;;23.30;49.50;;;;;;4811978;54;21064;-31
2022/09/19 09:41:51;;;;;;;58.33;39.88;;;23.30;49.20;;;;;;4830143;54;22016;-31
2022/09/19 09:48:34;;;;;;;63.60;42.92;;;23.40;49.50;;;;;;4824367;54;21585;-35
2022/09/19 09:56:45;;;;;;;73.50;47.15;;;23.40;49.80;;;;;;4817403;54;21016;-33
2022/09/19 10:07:29;;;;;;;91.35;57.05;;;23.40;50.50;;;;;;4794887;54;21114;-32
2022/09/19 10:12:38;;;;;;;89.72;58.83;;;23.50;50.50;;;;;;4838338;54;21157;-35
2022/09/19 10:17:46;;;;;;;99.53;63.00;;;23.50;50.70;;;;;;4799487;54;21068;-29
2022/09/19 10:22:47;;;;;;;104.97;66.97;;;23.60;50.90;;;;;;4807616;54;21079;-31
2022/09/19 10:27:49;;;;;;;108.07;67.70;;;23.50;50.90;;;;;;4809727;54;21474;-28
2022/09/19 10:32:51;;;;;;;114.12;71.78;;;23.60;51.30;;;;;;4795453;58;21470;-33
2022/09/19 10:39:25;;;;;;;115.70;72.93;;;23.60;51.30;;;;;;4805159;54;20999;-35
2022/09/19 10:44:27;;;;;;;109.18;75.50;;;23.60;51.50;;;;;;4796369;54;21020;-33
2022/09/19 10:49:36;;;;;;;116.45;77.43;;;23.60;51.60;;;;;;4812336;54;21426;-29
2022/09/19 10:54:40;;;;;;;118.72;79.03;;;23.70;51.80;;;;;;4809219;54;21522;-31
2022/09/19 10:59:41;;;;;;;116.35;78.22;;;23.70;51.90;;;;;;4818917;54;21529;-33
2022/09/19 11:04:54;;;;;;;115.40;79.68;;;23.60;52.10;;;;;;4812408;54;21087;-32
2022/09/19 11:09:59;;;;;;;117.70;81.85;;;23.70;52.20;;;;;;4802382;54;21035;-31
2022/09/19 11:15:00;;;;;;;117.72;79.85;;;23.70;52.30;;;;;;4795938;58;21486;-28
2022/09/19 11:21:44;;;;;;;112.25;82.12;;;23.70;52.50;;;;;;4794924;55;22391;-30
2022/09/19 11:30:11;;;;;;;120.80;89.97;;;23.70;52.70;;;;;;4839465;54;21437;-31
2022/09/19 11:35:42;;;;;;;120.20;90.35;;;23.70;52.90;;;;;;4799409;54;22621;-28
2022/09/19 11:41:20;;;;;;;121.82;90.05;;;23.60;52.20;;;;;;4821952;54;21498;-30
2022/09/19 11:48:00;;;;;;;125.60;89.43;;;23.60;52.30;;;;;;4798103;54;21912;-29
2022/09/19 11:53:28;;;;;;;117.10;86.93;;;23.60;52.30;;;;;;4799334;54;21645;-29
2022/09/19 12:00:12;;;;;;;119.97;87.43;;;23.60;52.20;;;;;;4813763;54;21573;-30
2022/09/19 12:09:44;;;;;;;119.82;87.88;;;23.50;52.20;;;;;;4808941;54;21000;-29
2022/09/19 12:15:50;;;;;;;119.43;87.10;;;23.60;52.60;;;;;;4821377;54;21470;-32
2022/09/19 12:20:54;;;;;;;119.25;89.70;;;23.60;52.90;;;;;;4816234;54;21016;-28
2022/09/19 12:25:58;;;;;;;113.30;89.68;;;23.70;53.00;;;;;;4812307;54;21016;-29
2022/09/19 12:31:04;;;;;;;117.50;87.25;;;23.70;53.20;;;;;;4810003;54;21032;-31
2022/09/19 12:36:23;;;;;;;114.37;87.40;;;23.70;53.30;;;;;;4803043;54;21000;-27
2022/09/19 12:42:00;;;;;;;110.25;85.90;;;23.70;53.50;;;;;;4819452;54;21079;-27
2022/09/19 12:47:15;;;;;;;;;;;23.70;53.60;;;;;;4817583;54;21518;-33
2022/09/19 12:59:38;;;;;;;116.07;85.57;;;23.70;53.60;;;;;;4819367;54;20322;-35
2022/09/19 13:06:20;;;;;;;101.40;80.13;;;23.80;54.00;;;;;;4818791;54;21506;-29
2022/09/19 13:11:41;;;;;;;105.60;78.60;;;23.80;54.20;;;;;;4854252;54;21514;-32
2022/09/19 13:29:01;;;;;;;96.90;73.95;;;23.80;54.80;;;;;;4801976;54;21024;-29
2022/09/19 13:34:40;;;;;;;112.90;82.22;;;23.80;54.80;;;;;;4798729;54;21047;-28
2022/09/19 13:39:53;;;;;;;123.47;84.90;;;23.70;54.80;;;;;;4795467;58;21490;-30
2022/09/19 13:45:01;;;;;;;125.75;87.62;;;23.70;54.80;;;;;;4812222;54;21170;-28
2022/09/19 13:50:27;;;;;;;130.30;90.95;;;23.70;54.80;;;;;;4818852;54;21486;-29
2022/09/19 13:55:41;;;;;;;129.48;88.55;;;23.70;54.80;;;;;;4795404;58;21019;-29
2022/09/19 14:00:46;;;;;;;127.30;87.25;;;23.80;55.40;;;;;;4854606;54;21546;-29
2022/09/19 14:05:48;;;;;;;134.30;91.50;;;23.70;55.10;;;;;;4801727;54;21498;-28
2022/09/19 14:10:53;;;;;;;169.27;101.82;;;23.70;55.30;;;;;;4808153;54;22037;-30
2022/09/19 14:16:30;;;;;;;186.85;104.80;;;23.70;53.40;;;;;;4797806;54;21494;-29
2022/09/19 14:21:55;;;;;;;196.43;124.15;;;23.50;51.80;;;;;;4822319;54;21576;-30
2022/09/19 14:27:59;;;;;;;179.77;110.43;;;23.40;51.20;;;;;;4809627;54;21549;-32
2022/09/19 14:34:45;;;;;;;168.25;108.43;;;23.40;51.80;;;;;;4824669;54;20988;-31
2022/09/19 14:43:09;;;;;;;162.27;104.57;;;23.40;52.30;;;;;;4830187;54;21552;-26
2022/09/19 14:48:39;;;;;;;143.55;94.25;;;23.40;52.60;;;;;;4799002;54;21569;-28
2022/09/19 14:53:42;;;;;;;142.45;95.62;;;23.40;52.80;;;;;;4802191;54;21024;-34
2022/09/19 14:58:50;;;;;;;141.98;94.68;;;23.30;52.80;;;;;;4844936;54;21067;-37
2022/09/19 15:03:58;;;;;;;134.73;91.70;;;23.30;53.00;;;;;;4798036;54;21055;-31
2022/09/19 15:09:00;;;;;;;136.73;91.95;;;23.30;53.10;;;;;;4830640;54;20980;-31
2022/09/19 15:14:05;;;;;;;134.00;90.38;;;23.30;53.20;;;;;;4825274;54;21067;-32
2022/09/19 15:19:08;;;;;;;133.32;89.32;;;23.30;53.30;;;;;;4795117;58;21075;-30
2022/09/19 15:24:10;;;;;;;123.93;86.95;;;23.20;53.30;;;;;;4800905;54;20992;-28
2022/09/19 15:29:37;;;;;;;121.10;84.20;;;23.20;53.40;;;;;;4795634;58;21000;-28
2022/09/19 15:34:40;;;;;;;122.28;82.50;;;23.20;53.40;;;;;;4800771;54;21538;-31
2022/09/19 15:39:41;;;;;;;113.37;80.82;;;23.20;53.50;;;;;;4823800;54;21589;-30
2022/09/19 15:44:42;;;;;;;116.03;79.62;;;23.20;53.60;;;;;;4824035;54;21110;-29
2022/09/19 15:49:46;;;;;;;113.72;78.40;;;23.20;53.60;;;;;;4822396;54;20996;-30
2022/09/19 15:54:52;;;;;;;113.70;80.40;;;23.20;53.60;;;;;;4824204;54;22081;-27
2022/09/19 15:59:58;;;;;;;108.70;77.27;;;23.20;53.70;;;;;;4805917;54;21063;-28
2022/09/19 16:05:24;;;;;;;103.93;74.60;;;23.20;53.80;;;;;;4802196;54;21521;-33
2022/09/19 16:10:31;;;;;;;103.90;73.68;;;23.20;53.80;;;;;;4796655;54;21558;-29
2022/09/19 16:15:37;;;;;;;112.82;73.60;;;23.20;53.80;;;;;;4805949;54;21067;-29
2022/09/19 16:20:39;;;;;;;106.10;72.70;;;23.20;53.80;;;;;;4821608;54;21486;-28
2022/09/19 16:26:00;;;;;;;100.07;72.62;;;23.20;53.90;;;;;;4874779;54;21012;-31
2022/09/19 16:31:27;;;;;;;101.18;72.60;;;23.20;53.80;;;;;;4812615;54;21007;-28
2022/09/19 16:36:29;;;;;;;98.57;69.50;;;23.20;54.00;;;;;;4799832;54;21059;-32
2022/09/19 16:41:42;;;;;;;95.65;68.07;;;23.20;54.00;;;;;;4828618;54;21537;-34
2022/09/19 16:46:44;;;;;;;99.62;69.35;;;23.10;53.90;;;;;;4803253;54;21019;-29
2022/09/19 16:51:49;;;;;;;91.10;67.07;;;23.10;54.00;;;;;;4794961;54;21024;-27
2022/09/19 16:56:50;;;;;;;95.75;68.45;;;23.10;54.00;;;;;;4812093;54;21012;-29
2022/09/19 17:01:51;;;;;;;90.40;65.45;;;23.20;54.10;;;;;;4799369;54;21032;-30
2022/09/19 17:06:51;;;;;;;88.37;66.72;;;23.20;54.10;;;;;;4797115;54;21003;-29
2022/09/19 17:11:53;;;;;;;92.35;66.57;;;23.20;54.10;;;;;;4876999;54;20987;-27
2022/09/19 17:16:54;;;;;;;86.32;65.75;;;23.10;54.10;;;;;;4796156;54;21501;-30
2022/09/19 17:21:55;;;;;;;89.82;65.28;;;23.10;54.10;;;;;;4807802;54;21147;-33
2022/09/19 17:26:56;;;;;;;87.35;65.50;;;23.10;54.20;;;;;;4795473;58;21052;-30
2022/09/19 17:31:57;;;;;;;87.40;63.83;;;23.10;54.20;;;;;;4818703;54;21486;-29
2022/09/19 17:36:57;;;;;;;84.55;61.78;;;23.10;54.20;;;;;;4795421;58;21047;-29
2022/09/19 17:41:59;;;;;;;83.50;63.05;;;23.10;54.30;;;;;;4823847;54;21028;-29
2022/09/19 17:46:59;;;;;;;83.50;62.65;;;23.10;54.20;;;;;;4795473;58;21031;-33
2022/09/19 17:52:00;;;;;;;84.22;62.15;;;23.10;54.30;;;;;;4835592;54;21526;-28
2022/09/19 17:57:01;;;;;;;81.53;60.05;;;23.10;54.30;;;;;;4800456;54;21525;-33
2022/09/19 18:07:22;;;;;;;83.72;61.90;;;23.10;54.30;;;;;;4821160;54;21036;-30
2022/09/19 18:12:25;;;;;;;81.80;61.80;;;23.10;54.30;;;;;;4795320;58;21537;-29
2022/09/19 18:17:27;;;;;;;76.12;58.72;;;23.10;54.30;;;;;;4819583;54;21550;-29
2022/09/19 18:22:27;;;;;;;76.87;60.22;;;23.10;54.40;;;;;;4794459;58;21490;-28
2022/09/19 18:27:31;;;;;;;77.40;57.97;;;23.10;54.40;;;;;;4795824;58;21117;-27
2022/09/19 18:32:33;;;;;;;82.32;60.65;;;23.10;54.30;;;;;;4833747;54;21008;-29
2022/09/19 18:37:40;;;;;;;78.45;58.30;;;23.10;54.30;;;;;;4798306;54;21076;-27
2022/09/19 18:42:41;;;;;;;79.05;59.33;;;23.00;54.30;;;;;;4802438;54;21545;-27
2022/09/19 18:47:42;;;;;;;74.85;56.90;;;23.10;54.30;;;;;;4795195;58;21954;-30
2022/09/19 18:52:43;;;;;;;73.97;57.53;;;23.10;54.40;;;;;;4812541;54;21028;-28
2022/09/19 18:57:44;;;;;;;74.28;57.00;;;23.00;54.30;;;;;;4803974;54;21027;-29
2022/09/19 19:02:45;;;;;;;75.18;57.97;;;23.00;54.30;;;;;;4821378;54;21015;-31
2022/09/19 19:07:46;;;;;;;76.12;58.95;;;23.00;54.30;;;;;;4795612;54;21534;-30
2022/09/19 19:12:47;;;;;;;72.20;56.45;;;23.00;54.30;;;;;;4795884;58;20980;-30
2022/09/19 19:17:48;;;;;;;73.05;55.05;;;23.00;54.30;;;;;;4805835;54;21020;-28
2022/09/19 19:22:50;;;;;;;73.95;57.38;;;23.00;54.30;;;;;;4804074;54;21045;-29
2022/09/19 19:27:51;;;;;;;72.75;55.08;;;23.00;54.20;;;;;;4828597;54;21526;-27
2022/09/19 19:32:54;;;;;;;73.82;55.97;;;23.00;54.20;;;;;;4801944;54;21032;-28
2022/09/19 19:37:54;;;;;;;68.35;54.35;;;23.00;54.20;;;;;;4803363;54;21094;-28
2022/09/19 19:42:55;;;;;;;68.97;53.28;;;23.00;54.20;;;;;;4842482;54;21016;-27
2022/09/19 19:47:56;;;;;;;70.20;54.38;;;23.00;54.10;;;;;;4795124;58;21517;-32
2022/09/19 19:52:57;;;;;;;70.40;54.08;;;23.00;54.10;;;;;;4826147;54;21517;-33
2022/09/19 19:57:58;;;;;;;67.65;53.40;;;23.00;54.70;;;;;;4834867;54;21020;-28
2022/09/19 20:02:59;;;;;;;67.00;52.13;;;23.00;54.10;;;;;;4813793;54;21039;-33
2022/09/19 20:08:00;;;;;;;64.43;51.67;;;23.00;54.00;;;;;;4812223;54;21636;-33
2022/09/19 20:13:04;;;;;;;64.72;50.65;;;23.00;54.10;;;;;;4822588;54;21019;-27
2022/09/19 20:18:06;;;;;;;64.53;50.72;;;23.00;54.00;;;;;;4795704;55;21577;-33
2022/09/19 20:23:07;;;;;;;68.80;51.65;;;23.00;54.00;;;;;;4803657;54;21040;-34
2022/09/19 20:28:08;;;;;;;64.30;49.47;;;23.00;53.90;;;;;;4873203;54;21095;-30
2022/09/19 20:33:09;;;;;;;62.25;49.30;;;23.00;53.90;;;;;;4797601;54;21545;-31
2022/09/19 20:38:10;;;;;;;62.62;47.03;;;23.00;53.80;;;;;;4797579;54;21489;-32
2022/09/19 20:43:12;;;;;;;60.92;47.40;;;23.00;53.80;;;;;;4823420;54;21024;-34
2022/09/19 20:48:13;;;;;;;60.72;47.00;;;22.90;53.70;;;;;;4797644;54;21462;-30
2022/09/19 20:53:13;;;;;;;60.75;48.50;;;23.00;53.70;;;;;;4804232;54;21606;-33
2022/09/19 20:58:15;;;;;;;59.13;47.70;;;23.00;53.80;;;;;;4795757;55;21039;-32
2022/09/19 21:03:16;;;;;;;57.53;45.45;;;22.90;53.70;;;;;;4815316;54;21062;-28
2022/09/19 21:08:17;;;;;;;55.92;43.90;;;22.90;53.60;;;;;;4795794;55;21019;-29
2022/09/19 21:13:18;;;;;;;57.83;45.38;;;22.90;53.60;;;;;;4809073;54;21486;-32
2022/09/19 21:18:22;;;;;;;57.70;45.08;;;22.90;53.50;;;;;;4795975;55;21493;-28
2022/09/19 21:23:23;;;;;;;55.47;44.22;;;22.90;53.50;;;;;;4816965;54;21055;-28
2022/09/19 21:28:24;;;;;;;57.20;44.83;;;22.90;53.40;;;;;;4804789;54;21568;-30
2022/09/19 21:33:28;;;;;;;54.45;44.63;;;22.90;53.80;;;;;;4796699;58;21051;-30
2022/09/19 21:38:30;;;;;;;55.58;44.65;;;22.90;53.40;;;;;;4803952;54;20992;-29
2022/09/19 21:43:42;;;;;;;53.40;42.67;;;22.90;53.30;;;;;;4870077;54;21028;-33
2022/09/19 21:48:46;;;;;;;54.10;43.70;;;22.90;53.40;;;;;;4811090;54;21016;-33
2022/09/19 21:53:52;;;;;;;53.33;42.62;;;22.90;53.30;;;;;;4808029;54;21111;-34
2022/09/19 21:58:54;;;;;;;52.23;41.23;;;22.90;53.20;;;;;;4844389;54;21016;-29
2022/09/19 22:03:56;;;;;;;54.90;42.85;;;22.90;53.10;;;;;;4810058;54;21380;-35
2022/09/19 22:08:58;;;;;;;51.40;41.63;;;22.90;53.10;;;;;;4807229;54;20999;-29
2022/09/19 22:14:00;;;;;;;53.55;41.30;;;22.90;53.10;;;;;;4831663;54;21012;-28
2022/09/19 22:19:03;;;;;;;52.67;40.53;;;22.90;53.00;;;;;;4838226;54;21019;-27
2022/09/19 22:24:04;;;;;;;52.25;41.72;;;22.90;52.90;;;;;;4826021;54;21554;-28
2022/09/19 22:29:05;;;;;;;51.28;40.12;;;22.90;52.90;;;;;;4801253;54;20991;-30
2022/09/19 22:34:06;;;;;;;53.28;40.42;;;22.90;52.80;;;;;;4801243;54;21003;-28
2022/09/19 22:39:07;;;;;;;48.55;39.67;;;22.80;52.70;;;;;;4817122;54;21071;-28
2022/09/19 22:44:08;;;;;;;49.78;38.47;;;22.90;52.80;;;;;;4809281;54;21040;-30
2022/09/19 22:49:09;;;;;;;46.55;38.42;;;22.90;52.80;;;;;;4795554;58;21526;-28
2022/09/19 22:54:10;;;;;;;46.75;36.58;;;22.80;52.80;;;;;;4817287;54;21134;-34
2022/09/19 22:59:11;;;;;;;49.63;38.00;;;22.80;52.70;;;;;;4828462;54;21020;-34
2022/09/19 23:04:12;;;;;;;46.45;36.08;;;22.80;52.70;;;;;;4794797;55;21656;-29
2022/09/19 23:09:17;;;;;;;47.55;38.05;;;22.80;52.80;;;;;;4795613;55;21482;-32
2022/09/19 23:14:22;;;;;;;45.08;36.80;;;22.80;52.70;;;;;;4796456;54;21015;-27
2022/09/19 23:19:25;;;;;;;43.95;35.97;;;22.80;52.70;;;;;;4794859;58;21534;-28
2022/09/19 23:24:30;;;;;;;43.70;35.97;;;22.80;52.70;;;;;;4812830;54;21031;-28
2022/09/19 23:29:33;;;;;;;44.35;36.53;;;22.80;52.70;;;;;;4839619;54;21585;-30
2022/09/19 23:34:34;;;;;;;44.58;35.20;;;22.80;52.70;;;;;;4829765;54;21498;-28
2022/09/19 23:39:34;;;;;;;44.97;35.65;;;22.80;52.80;;;;;;4819907;54;21039;-29
2022/09/19 23:44:35;;;;;;;44.40;35.45;;;22.80;52.70;;;;;;4857251;54;21015;-31
2022/09/19 23:49:36;;;;;;;44.88;35.38;;;22.80;52.80;;;;;;4822459;54;21039;-27
2022/09/19 23:54:37;;;;;;;41.40;33.92;;;22.80;52.70;;;;;;4875291;54;20992;-30
2022/09/19 23:59:38;;;;;;;44.40;35.70;;;22.80;52.70;;;;;;4800093;54;21510;-29
